sensor_id;sensor_type;location;lat;lon;timestamp;P1;durP1;ratioP1;P2;durP2;ratioP2
16510;SDS011;8368;48.772;8.754;2023-01-01T00:01:35;76.60;;;47.17;;
16510;SDS011;8368;48.772;8.754;2023-01-01T00:04:04;99.63;;;60.77;;
16510;SDS011;8368;48.772;8.754;2023-01-01T00:06:32;92.73;;;54.50;;
16510;SDS011;8368;48.772;8.754;2023-01-01T00:08:58;79.87;;;47.27;;
16510;SDS011;8368;48.772;8.754;2023-01-01T00:11:42;63.67;;;38.37;;
16510;SDS011;8368;48.772;8.754;2023-01-01T00:14:08;52.43;;;32.40;;
16510;SDS011;8368;48.772;8.754;2023-01-01T00:16:33;50.83;;;32.27;;
16510;SDS011;8368;48.772;8.754;2023-01-01T00:18:59;43.67;;;27.33;;
16510;SDS011;8368;48.772;8.754;2023-01-01T00:21:25;41.03;;;26.03;;
16510;SDS011;8368;48.772;8.754;2023-01-01T00:23:50;38.90;;;24.13;;
16510;SDS011;8368;48.772;8.754;2023-01-01T00:26:16;32.37;;;22.13;;
16510;SDS011;8368;48.772;8.754;2023-01-01T00:28:42;32.63;;;20.60;;
16510;SDS011;8368;48.772;8.754;2023-01-01T00:31:09;29.33;;;19.60;;
16510;SDS011;8368;48.772;8.754;2023-01-01T00:33:42;25.67;;;17.80;;
16510;SDS011;8368;48.772;8.754;2023-01-01T00:36:12;27.37;;;17.67;;
16510;SDS011;8368;48.772;8.754;2023-01-01T00:38:39;25.83;;;17.50;;
16510;SDS011;8368;48.772;8.754;2023-01-01T00:41:08;28.50;;;17.90;;
16510;SDS011;8368;48.772;8.754;2023-01-01T00:43:33;27.73;;;17.70;;
16510;SDS011;8368;48.772;8.754;2023-01-01T00:45:59;27.53;;;17.40;;
16510;SDS011;8368;48.772;8.754;2023-01-01T00:48:25;30.33;;;17.23;;
16510;SDS011;8368;48.772;8.754;2023-01-01T00:50:51;30.43;;;18.57;;
16510;SDS011;8368;48.772;8.754;2023-01-01T00:53:17;28.43;;;17.97;;
16510;SDS011;8368;48.772;8.754;2023-01-01T00:55:44;28.27;;;18.37;;
16510;SDS011;8368;48.772;8.754;2023-01-01T00:58:10;27.37;;;17.23;;
16510;SDS011;8368;48.772;8.754;2023-01-01T01:00:36;29.43;;;19.10;;
16510;SDS011;8368;48.772;8.754;2023-01-01T01:03:02;32.27;;;20.10;;
16510;SDS011;8368;48.772;8.754;2023-01-01T01:05:28;30.50;;;20.50;;
16510;SDS011;8368;48.772;8.754;2023-01-01T01:07:53;30.17;;;18.70;;
16510;SDS011;8368;48.772;8.754;2023-01-01T01:10:19;26.97;;;18.27;;
16510;SDS011;8368;48.772;8.754;2023-01-01T01:12:46;26.67;;;16.30;;
16510;SDS011;8368;48.772;8.754;2023-01-01T01:15:12;26.50;;;17.53;;
16510;SDS011;8368;48.772;8.754;2023-01-01T01:17:39;26.33;;;16.47;;
16510;SDS011;8368;48.772;8.754;2023-01-01T01:20:04;24.67;;;15.97;;
16510;SDS011;8368;48.772;8.754;2023-01-01T01:22:31;27.30;;;15.40;;
16510;SDS011;8368;48.772;8.754;2023-01-01T01:24:58;20.33;;;14.20;;
16510;SDS011;8368;48.772;8.754;2023-01-01T01:27:24;23.97;;;14.80;;
16510;SDS011;8368;48.772;8.754;2023-01-01T01:29:50;19.70;;;13.63;;
16510;SDS011;8368;48.772;8.754;2023-01-01T01:32:16;19.40;;;14.30;;
16510;SDS011;8368;48.772;8.754;2023-01-01T01:34:41;20.80;;;13.97;;
16510;SDS011;8368;48.772;8.754;2023-01-01T01:37:07;23.40;;;15.30;;
16510;SDS011;8368;48.772;8.754;2023-01-01T01:39:32;16.37;;;12.37;;
16510;SDS011;8368;48.772;8.754;2023-01-01T01:41:58;18.67;;;12.13;;
16510;SDS011;8368;48.772;8.754;2023-01-01T01:52:40;16.73;;;10.77;;
16510;SDS011;8368;48.772;8.754;2023-01-01T01:55:12;14.10;;;9.07;;
16510;SDS011;8368;48.772;8.754;2023-01-01T01:57:38;13.93;;;9.40;;
16510;SDS011;8368;48.772;8.754;2023-01-01T02:00:05;12.27;;;9.10;;
16510;SDS011;8368;48.772;8.754;2023-01-01T02:02:33;15.53;;;9.97;;
16510;SDS011;8368;48.772;8.754;2023-01-01T02:05:03;11.73;;;8.27;;
16510;SDS011;8368;48.772;8.754;2023-01-01T02:07:29;9.87;;;8.57;;
16510;SDS011;8368;48.772;8.754;2023-01-01T02:09:57;10.50;;;7.53;;
16510;SDS011;8368;48.772;8.754;2023-01-01T02:12:24;15.17;;;8.77;;
16510;SDS011;8368;48.772;8.754;2023-01-01T02:14:51;11.20;;;7.57;;
16510;SDS011;8368;48.772;8.754;2023-01-01T02:31:01;11.63;;;6.43;;
16510;SDS011;8368;48.772;8.754;2023-01-01T02:33:29;8.77;;;5.80;;
16510;SDS011;8368;48.772;8.754;2023-01-01T02:35:59;7.10;;;5.73;;
16510;SDS011;8368;48.772;8.754;2023-01-01T02:38:42;8.63;;;6.07;;
16510;SDS011;8368;48.772;8.754;2023-01-01T02:41:13;8.93;;;6.30;;
16510;SDS011;8368;48.772;8.754;2023-01-01T02:43:45;6.23;;;5.63;;
16510;SDS011;8368;48.772;8.754;2023-01-01T02:46:11;8.10;;;5.17;;
16510;SDS011;8368;48.772;8.754;2023-01-01T02:48:50;5.97;;;4.00;;
16510;SDS011;8368;48.772;8.754;2023-01-01T02:56:32;3.57;;;2.47;;
16510;SDS011;8368;48.772;8.754;2023-01-01T03:02:29;5.13;;;2.77;;
16510;SDS011;8368;48.772;8.754;2023-01-01T03:08:07;4.17;;;2.83;;
16510;SDS011;8368;48.772;8.754;2023-01-01T03:10:44;3.50;;;3.20;;
16510;SDS011;8368;48.772;8.754;2023-01-01T03:19:01;2.70;;;2.50;;
16510;SDS011;8368;48.772;8.754;2023-01-01T03:21:57;3.17;;;2.87;;
16510;SDS011;8368;48.772;8.754;2023-01-01T03:26:59;3.50;;;2.80;;
16510;SDS011;8368;48.772;8.754;2023-01-01T03:29:30;2.50;;;2.40;;
16510;SDS011;8368;48.772;8.754;2023-01-01T03:32:00;2.60;;;2.50;;
16510;SDS011;8368;48.772;8.754;2023-01-01T03:34:32;3.07;;;2.40;;
16510;SDS011;8368;48.772;8.754;2023-01-01T03:37:03;3.47;;;2.10;;
16510;SDS011;8368;48.772;8.754;2023-01-01T03:39:40;2.80;;;2.40;;
16510;SDS011;8368;48.772;8.754;2023-01-01T03:42:14;3.50;;;2.23;;
16510;SDS011;8368;48.772;8.754;2023-01-01T03:44:57;2.40;;;2.30;;
16510;SDS011;8368;48.772;8.754;2023-01-01T03:47:45;3.93;;;2.07;;
16510;SDS011;8368;48.772;8.754;2023-01-01T03:50:11;2.63;;;2.30;;
16510;SDS011;8368;48.772;8.754;2023-01-01T03:52:54;2.10;;;2.00;;
16510;SDS011;8368;48.772;8.754;2023-01-01T03:55:30;2.40;;;2.20;;
16510;SDS011;8368;48.772;8.754;2023-01-01T04:00:39;2.40;;;2.20;;
16510;SDS011;8368;48.772;8.754;2023-01-01T04:03:15;2.77;;;2.37;;
16510;SDS011;8368;48.772;8.754;2023-01-01T04:05:52;2.50;;;2.30;;
16510;SDS011;8368;48.772;8.754;2023-01-01T04:08:18;3.47;;;2.37;;
16510;SDS011;8368;48.772;8.754;2023-01-01T04:10:45;2.10;;;2.00;;
16510;SDS011;8368;48.772;8.754;2023-01-01T04:13:21;2.23;;;2.13;;
16510;SDS011;8368;48.772;8.754;2023-01-01T04:15:47;3.57;;;2.50;;
16510;SDS011;8368;48.772;8.754;2023-01-01T04:18:12;3.60;;;2.17;;
16510;SDS011;8368;48.772;8.754;2023-01-01T04:20:38;2.07;;;1.93;;
16510;SDS011;8368;48.772;8.754;2023-01-01T04:23:04;2.23;;;2.03;;
16510;SDS011;8368;48.772;8.754;2023-01-01T04:25:29;3.43;;;2.10;;
16510;SDS011;8368;48.772;8.754;2023-01-01T04:27:55;1.97;;;1.83;;
16510;SDS011;8368;48.772;8.754;2023-01-01T04:30:22;1.93;;;1.80;;
16510;SDS011;8368;48.772;8.754;2023-01-01T04:32:48;3.73;;;2.00;;
16510;SDS011;8368;48.772;8.754;2023-01-01T04:35:13;1.93;;;1.80;;
16510;SDS011;8368;48.772;8.754;2023-01-01T04:37:40;2.30;;;1.73;;
16510;SDS011;8368;48.772;8.754;2023-01-01T04:40:07;2.10;;;1.70;;
16510;SDS011;8368;48.772;8.754;2023-01-01T04:42:33;1.80;;;1.70;;
16510;SDS011;8368;48.772;8.754;2023-01-01T04:44:59;3.10;;;1.70;;
16510;SDS011;8368;48.772;8.754;2023-01-01T04:47:24;2.20;;;1.83;;
16510;SDS011;8368;48.772;8.754;2023-01-01T04:49:51;2.03;;;1.80;;
16510;SDS011;8368;48.772;8.754;2023-01-01T04:52:17;1.70;;;1.60;;
16510;SDS011;8368;48.772;8.754;2023-01-01T04:54:42;2.00;;;1.90;;
16510;SDS011;8368;48.772;8.754;2023-01-01T04:57:09;1.80;;;1.70;;
16510;SDS011;8368;48.772;8.754;2023-01-01T04:59:34;1.77;;;1.67;;
16510;SDS011;8368;48.772;8.754;2023-01-01T05:02:00;2.73;;;1.87;;
16510;SDS011;8368;48.772;8.754;2023-01-01T05:04:25;1.83;;;1.73;;
16510;SDS011;8368;48.772;8.754;2023-01-01T05:06:51;3.70;;;1.80;;
16510;SDS011;8368;48.772;8.754;2023-01-01T05:09:16;1.87;;;1.53;;
16510;SDS011;8368;48.772;8.754;2023-01-01T05:11:42;5.07;;;1.70;;
16510;SDS011;8368;48.772;8.754;2023-01-01T05:14:08;2.07;;;1.70;;
16510;SDS011;8368;48.772;8.754;2023-01-01T05:16:34;4.53;;;1.50;;
16510;SDS011;8368;48.772;8.754;2023-01-01T05:19:01;1.53;;;1.43;;
16510;SDS011;8368;48.772;8.754;2023-01-01T05:21:28;1.77;;;1.67;;
16510;SDS011;8368;48.772;8.754;2023-01-01T05:23:56;4.40;;;1.53;;
16510;SDS011;8368;48.772;8.754;2023-01-01T05:26:26;3.63;;;1.77;;
16510;SDS011;8368;48.772;8.754;2023-01-01T05:28:55;1.60;;;1.50;;
16510;SDS011;8368;48.772;8.754;2023-01-01T05:31:22;1.67;;;1.50;;
16510;SDS011;8368;48.772;8.754;2023-01-01T05:33:49;3.60;;;2.00;;
16510;SDS011;8368;48.772;8.754;2023-01-01T05:36:17;2.30;;;1.67;;
16510;SDS011;8368;48.772;8.754;2023-01-01T05:38:48;2.20;;;1.80;;
16510;SDS011;8368;48.772;8.754;2023-01-01T05:41:15;3.17;;;1.50;;
16510;SDS011;8368;48.772;8.754;2023-01-01T05:43:41;2.07;;;1.30;;
16510;SDS011;8368;48.772;8.754;2023-01-01T05:46:09;1.73;;;1.50;;
16510;SDS011;8368;48.772;8.754;2023-01-01T05:48:36;1.87;;;1.70;;
16510;SDS011;8368;48.772;8.754;2023-01-01T05:53:28;3.00;;;1.47;;
16510;SDS011;8368;48.772;8.754;2023-01-01T05:55:55;3.77;;;1.90;;
16510;SDS011;8368;48.772;8.754;2023-01-01T05:58:21;1.93;;;1.83;;
16510;SDS011;8368;48.772;8.754;2023-01-01T06:00:46;2.97;;;1.93;;
16510;SDS011;8368;48.772;8.754;2023-01-01T06:03:12;1.73;;;1.63;;
16510;SDS011;8368;48.772;8.754;2023-01-01T06:05:37;2.07;;;1.60;;
16510;SDS011;8368;48.772;8.754;2023-01-01T06:08:03;4.23;;;1.67;;
16510;SDS011;8368;48.772;8.754;2023-01-01T06:10:28;2.20;;;1.70;;
16510;SDS011;8368;48.772;8.754;2023-01-01T06:12:54;1.60;;;1.50;;
16510;SDS011;8368;48.772;8.754;2023-01-01T06:15:23;2.37;;;1.73;;
16510;SDS011;8368;48.772;8.754;2023-01-01T06:17:51;1.80;;;1.70;;
16510;SDS011;8368;48.772;8.754;2023-01-01T06:20:17;4.10;;;2.00;;
16510;SDS011;8368;48.772;8.754;2023-01-01T06:22:43;2.07;;;1.87;;
16510;SDS011;8368;48.772;8.754;2023-01-01T06:25:09;5.03;;;1.83;;
16510;SDS011;8368;48.772;8.754;2023-01-01T06:27:36;1.80;;;1.70;;
16510;SDS011;8368;48.772;8.754;2023-01-01T06:30:02;2.67;;;1.67;;
16510;SDS011;8368;48.772;8.754;2023-01-01T06:32:31;2.90;;;1.90;;
16510;SDS011;8368;48.772;8.754;2023-01-01T06:34:57;3.53;;;1.60;;
16510;SDS011;8368;48.772;8.754;2023-01-01T06:37:23;3.87;;;1.87;;
16510;SDS011;8368;48.772;8.754;2023-01-01T06:39:48;3.37;;;1.80;;
16510;SDS011;8368;48.772;8.754;2023-01-01T06:42:14;3.07;;;1.90;;
16510;SDS011;8368;48.772;8.754;2023-01-01T06:44:39;3.03;;;1.40;;
16510;SDS011;8368;48.772;8.754;2023-01-01T06:47:05;1.90;;;1.53;;
16510;SDS011;8368;48.772;8.754;2023-01-01T06:49:31;2.43;;;1.63;;
16510;SDS011;8368;48.772;8.754;2023-01-01T06:51:56;1.70;;;1.60;;
16510;SDS011;8368;48.772;8.754;2023-01-01T06:54:22;2.60;;;1.87;;
16510;SDS011;8368;48.772;8.754;2023-01-01T06:56:47;4.27;;;1.90;;
16510;SDS011;8368;48.772;8.754;2023-01-01T06:59:14;1.50;;;1.43;;
16510;SDS011;8368;48.772;8.754;2023-01-01T07:01:40;2.73;;;1.70;;
16510;SDS011;8368;48.772;8.754;2023-01-01T07:04:06;2.30;;;1.50;;
16510;SDS011;8368;48.772;8.754;2023-01-01T07:06:34;2.60;;;1.37;;
16510;SDS011;8368;48.772;8.754;2023-01-01T07:09:00;2.00;;;1.80;;
16510;SDS011;8368;48.772;8.754;2023-01-01T07:11:27;2.07;;;1.80;;
16510;SDS011;8368;48.772;8.754;2023-01-01T07:13:53;4.40;;;1.60;;
16510;SDS011;8368;48.772;8.754;2023-01-01T07:16:19;6.43;;;1.90;;
16510;SDS011;8368;48.772;8.754;2023-01-01T07:18:45;3.63;;;1.50;;
16510;SDS011;8368;48.772;8.754;2023-01-01T07:21:27;2.00;;;1.47;;
16510;SDS011;8368;48.772;8.754;2023-01-01T07:23:58;4.50;;;2.20;;
16510;SDS011;8368;48.772;8.754;2023-01-01T07:26:25;2.10;;;1.90;;
16510;SDS011;8368;48.772;8.754;2023-01-01T07:28:52;2.40;;;1.90;;
16510;SDS011;8368;48.772;8.754;2023-01-01T07:31:18;2.50;;;1.60;;
16510;SDS011;8368;48.772;8.754;2023-01-01T07:33:43;4.00;;;1.60;;
16510;SDS011;8368;48.772;8.754;2023-01-01T07:36:09;3.63;;;2.07;;
16510;SDS011;8368;48.772;8.754;2023-01-01T07:38:34;6.43;;;2.80;;
16510;SDS011;8368;48.772;8.754;2023-01-01T07:41:00;1.60;;;1.50;;
16510;SDS011;8368;48.772;8.754;2023-01-01T07:43:25;3.87;;;2.17;;
16510;SDS011;8368;48.772;8.754;2023-01-01T07:45:51;2.30;;;1.80;;
16510;SDS011;8368;48.772;8.754;2023-01-01T07:48:17;2.87;;;2.23;;
16510;SDS011;8368;48.772;8.754;2023-01-01T07:50:42;4.10;;;1.70;;
16510;SDS011;8368;48.772;8.754;2023-01-01T07:53:08;2.00;;;1.87;;
16510;SDS011;8368;48.772;8.754;2023-01-01T07:55:33;2.10;;;1.90;;
16510;SDS011;8368;48.772;8.754;2023-01-01T07:57:59;4.47;;;2.03;;
16510;SDS011;8368;48.772;8.754;2023-01-01T08:00:25;3.40;;;2.60;;
16510;SDS011;8368;48.772;8.754;2023-01-01T08:02:51;3.77;;;1.90;;
16510;SDS011;8368;48.772;8.754;2023-01-01T08:05:17;2.30;;;2.10;;
16510;SDS011;8368;48.772;8.754;2023-01-01T08:07:46;2.47;;;2.00;;
16510;SDS011;8368;48.772;8.754;2023-01-01T08:10:13;2.07;;;1.90;;
16510;SDS011;8368;48.772;8.754;2023-01-01T08:12:39;3.50;;;2.07;;
16510;SDS011;8368;48.772;8.754;2023-01-01T08:15:05;2.30;;;2.10;;
16510;SDS011;8368;48.772;8.754;2023-01-01T08:17:31;2.10;;;1.90;;
16510;SDS011;8368;48.772;8.754;2023-01-01T08:19:56;3.77;;;1.83;;
16510;SDS011;8368;48.772;8.754;2023-01-01T08:22:22;2.87;;;1.93;;
16510;SDS011;8368;48.772;8.754;2023-01-01T08:24:47;6.90;;;2.20;;
16510;SDS011;8368;48.772;8.754;2023-01-01T08:27:13;3.63;;;2.40;;
16510;SDS011;8368;48.772;8.754;2023-01-01T08:29:40;2.43;;;2.20;;
16510;SDS011;8368;48.772;8.754;2023-01-01T08:32:06;2.50;;;2.30;;
16510;SDS011;8368;48.772;8.754;2023-01-01T08:34:32;3.60;;;2.00;;
16510;SDS011;8368;48.772;8.754;2023-01-01T08:36:58;7.50;;;2.20;;
16510;SDS011;8368;48.772;8.754;2023-01-01T08:39:26;3.73;;;2.37;;
16510;SDS011;8368;48.772;8.754;2023-01-01T08:41:52;2.60;;;1.87;;
16510;SDS011;8368;48.772;8.754;2023-01-01T08:44:17;3.10;;;2.83;;
16510;SDS011;8368;48.772;8.754;2023-01-01T08:46:43;4.87;;;2.40;;
16510;SDS011;8368;48.772;8.754;2023-01-01T08:49:09;2.97;;;2.30;;
16510;SDS011;8368;48.772;8.754;2023-01-01T08:51:34;5.03;;;2.83;;
16510;SDS011;8368;48.772;8.754;2023-01-01T08:54:00;4.30;;;2.20;;
16510;SDS011;8368;48.772;8.754;2023-01-01T08:56:25;2.87;;;2.50;;
16510;SDS011;8368;48.772;8.754;2023-01-01T08:58:51;4.33;;;2.67;;
16510;SDS011;8368;48.772;8.754;2023-01-01T09:01:17;6.00;;;2.30;;
16510;SDS011;8368;48.772;8.754;2023-01-01T09:03:45;5.47;;;2.63;;
16510;SDS011;8368;48.772;8.754;2023-01-01T09:06:11;3.53;;;2.27;;
16510;SDS011;8368;48.772;8.754;2023-01-01T09:08:37;4.93;;;2.30;;
16510;SDS011;8368;48.772;8.754;2023-01-01T09:11:03;3.90;;;2.63;;
16510;SDS011;8368;48.772;8.754;2023-01-01T09:13:28;2.87;;;2.67;;
16510;SDS011;8368;48.772;8.754;2023-01-01T09:15:55;2.77;;;2.40;;
16510;SDS011;8368;48.772;8.754;2023-01-01T09:18:21;3.07;;;2.27;;
16510;SDS011;8368;48.772;8.754;2023-01-01T09:20:48;5.07;;;2.93;;
16510;SDS011;8368;48.772;8.754;2023-01-01T09:23:14;5.90;;;2.60;;
16510;SDS011;8368;48.772;8.754;2023-01-01T09:25:40;3.10;;;2.33;;
16510;SDS011;8368;48.772;8.754;2023-01-01T09:28:06;2.60;;;2.40;;
16510;SDS011;8368;48.772;8.754;2023-01-01T09:30:34;2.60;;;2.30;;
16510;SDS011;8368;48.772;8.754;2023-01-01T09:33:00;3.53;;;2.40;;
16510;SDS011;8368;48.772;8.754;2023-01-01T09:35:27;4.70;;;2.50;;
16510;SDS011;8368;48.772;8.754;2023-01-01T09:37:53;2.20;;;2.10;;
16510;SDS011;8368;48.772;8.754;2023-01-01T09:40:27;3.03;;;2.63;;
16510;SDS011;8368;48.772;8.754;2023-01-01T09:42:59;4.97;;;2.50;;
16510;SDS011;8368;48.772;8.754;2023-01-01T09:45:56;2.87;;;2.60;;
16510;SDS011;8368;48.772;8.754;2023-01-01T09:48:25;3.33;;;2.50;;
16510;SDS011;8368;48.772;8.754;2023-01-01T09:50:53;2.70;;;2.50;;
16510;SDS011;8368;48.772;8.754;2023-01-01T09:55:59;3.80;;;2.63;;
16510;SDS011;8368;48.772;8.754;2023-01-01T09:58:27;2.73;;;2.40;;
16510;SDS011;8368;48.772;8.754;2023-01-01T10:01:00;7.53;;;2.30;;
16510;SDS011;8368;48.772;8.754;2023-01-01T10:03:35;2.53;;;2.33;;
16510;SDS011;8368;48.772;8.754;2023-01-01T10:08:45;3.30;;;2.30;;
16510;SDS011;8368;48.772;8.754;2023-01-01T10:11:35;2.67;;;1.83;;
16510;SDS011;8368;48.772;8.754;2023-01-01T10:14:06;3.03;;;1.90;;
16510;SDS011;8368;48.772;8.754;2023-01-01T10:16:42;3.20;;;2.40;;
16510;SDS011;8368;48.772;8.754;2023-01-01T10:19:19;4.07;;;2.00;;
16510;SDS011;8368;48.772;8.754;2023-01-01T10:21:54;3.20;;;1.80;;
16510;SDS011;8368;48.772;8.754;2023-01-01T10:24:30;3.80;;;2.17;;
16510;SDS011;8368;48.772;8.754;2023-01-01T10:27:30;2.10;;;1.90;;
16510;SDS011;8368;48.772;8.754;2023-01-01T10:30:00;2.80;;;2.10;;
16510;SDS011;8368;48.772;8.754;2023-01-01T10:32:30;3.90;;;1.70;;
16510;SDS011;8368;48.772;8.754;2023-01-01T10:35:01;3.33;;;2.00;;
16510;SDS011;8368;48.772;8.754;2023-01-01T10:37:34;2.33;;;1.80;;
16510;SDS011;8368;48.772;8.754;2023-01-01T10:40:03;2.70;;;2.50;;
16510;SDS011;8368;48.772;8.754;2023-01-01T10:42:37;3.43;;;2.00;;
16510;SDS011;8368;48.772;8.754;2023-01-01T10:45:03;2.27;;;1.80;;
16510;SDS011;8368;48.772;8.754;2023-01-01T10:47:29;6.50;;;2.27;;
16510;SDS011;8368;48.772;8.754;2023-01-01T10:50:02;3.90;;;1.77;;
16510;SDS011;8368;48.772;8.754;2023-01-01T10:55:01;3.00;;;1.80;;
16510;SDS011;8368;48.772;8.754;2023-01-01T11:00:09;3.07;;;2.10;;
16510;SDS011;8368;48.772;8.754;2023-01-01T11:02:35;4.60;;;2.20;;
16510;SDS011;8368;48.772;8.754;2023-01-01T11:05:17;3.63;;;1.92;;
16510;SDS011;8368;48.772;8.754;2023-01-01T11:07:45;4.00;;;1.80;;
16510;SDS011;8368;48.772;8.754;2023-01-01T11:10:20;3.47;;;1.90;;
16510;SDS011;8368;48.772;8.754;2023-01-01T11:12:48;2.67;;;2.07;;
16510;SDS011;8368;48.772;8.754;2023-01-01T11:15:22;2.30;;;2.10;;
16510;SDS011;8368;48.772;8.754;2023-01-01T11:18:01;4.67;;;2.00;;
16510;SDS011;8368;48.772;8.754;2023-01-01T11:20:29;5.93;;;1.97;;
16510;SDS011;8368;48.772;8.754;2023-01-01T11:22:56;2.63;;;1.93;;
16510;SDS011;8368;48.772;8.754;2023-01-01T11:27:49;5.13;;;2.30;;
16510;SDS011;8368;48.772;8.754;2023-01-01T11:32:46;2.42;;;1.55;;
16510;SDS011;8368;48.772;8.754;2023-01-01T11:35:17;1.70;;;1.60;;
16510;SDS011;8368;48.772;8.754;2023-01-01T11:37:47;4.20;;;2.20;;
16510;SDS011;8368;48.772;8.754;2023-01-01T11:40:16;5.70;;;2.10;;
16510;SDS011;8368;48.772;8.754;2023-01-01T11:43:04;2.23;;;2.00;;
16510;SDS011;8368;48.772;8.754;2023-01-01T11:45:37;2.77;;;1.87;;
16510;SDS011;8368;48.772;8.754;2023-01-01T11:48:09;5.18;;;2.13;;
16510;SDS011;8368;48.772;8.754;2023-01-01T11:50:38;13.73;;;3.20;;
16510;SDS011;8368;48.772;8.754;2023-01-01T11:55:51;4.47;;;2.00;;
16510;SDS011;8368;48.772;8.754;2023-01-01T11:59:10;6.53;;;2.10;;
16510;SDS011;8368;48.772;8.754;2023-01-01T12:03:54;4.70;;;2.37;;
16510;SDS011;8368;48.772;8.754;2023-01-01T12:06:42;4.57;;;2.45;;
16510;SDS011;8368;48.772;8.754;2023-01-01T12:09:31;4.60;;;2.30;;
16510;SDS011;8368;48.772;8.754;2023-01-01T12:12:34;3.77;;;2.20;;
16510;SDS011;8368;48.772;8.754;2023-01-01T12:15:04;3.37;;;2.53;;
16510;SDS011;8368;48.772;8.754;2023-01-01T12:19:59;3.70;;;2.10;;
16510;SDS011;8368;48.772;8.754;2023-01-01T12:22:26;2.60;;;2.20;;
16510;SDS011;8368;48.772;8.754;2023-01-01T12:24:52;6.37;;;2.30;;
16510;SDS011;8368;48.772;8.754;2023-01-01T12:30:11;3.13;;;2.20;;
16510;SDS011;8368;48.772;8.754;2023-01-01T12:54:07;5.13;;;2.08;;
16510;SDS011;8368;48.772;8.754;2023-01-01T12:56:57;4.35;;;2.38;;
16510;SDS011;8368;48.772;8.754;2023-01-01T12:59:34;7.53;;;3.25;;
16510;SDS011;8368;48.772;8.754;2023-01-01T13:02:02;4.80;;;2.40;;
16510;SDS011;8368;48.772;8.754;2023-01-01T13:04:46;5.70;;;2.30;;
16510;SDS011;8368;48.772;8.754;2023-01-01T13:07:13;7.10;;;2.40;;
16510;SDS011;8368;48.772;8.754;2023-01-01T13:09:42;3.85;;;1.90;;
16510;SDS011;8368;48.772;8.754;2023-01-01T13:12:19;3.30;;;2.20;;
16510;SDS011;8368;48.772;8.754;2023-01-01T13:14:48;4.67;;;2.37;;
16510;SDS011;8368;48.772;8.754;2023-01-01T13:17:24;5.07;;;2.03;;
16510;SDS011;8368;48.772;8.754;2023-01-01T13:19:55;3.97;;;2.33;;
16510;SDS011;8368;48.772;8.754;2023-01-01T13:38:47;119.87;;;87.93;;
16510;SDS011;8368;48.772;8.754;2023-01-01T13:44:09;51.63;;;38.20;;
16510;SDS011;8368;48.772;8.754;2023-01-01T13:49:24;42.97;;;34.77;;
16510;SDS011;8368;48.772;8.754;2023-01-01T14:00:12;17.58;;;11.77;;
16510;SDS011;8368;48.772;8.754;2023-01-01T14:02:49;23.23;;;15.00;;
16510;SDS011;8368;48.772;8.754;2023-01-01T14:05:41;16.40;;;11.50;;
16510;SDS011;8368;48.772;8.754;2023-01-01T14:08:52;159.20;;;100.47;;
16510;SDS011;8368;48.772;8.754;2023-01-01T14:11:00;66.40;;;41.83;;
16510;SDS011;8368;48.772;8.754;2023-01-01T14:13:38;51.40;;;36.17;;
16510;SDS011;8368;48.772;8.754;2023-01-01T14:16:06;30.27;;;20.80;;
16510;SDS011;8368;48.772;8.754;2023-01-01T14:21:24;23.23;;;18.53;;
16510;SDS011;8368;48.772;8.754;2023-01-01T14:23:57;13.53;;;8.63;;
16510;SDS011;8368;48.772;8.754;2023-01-01T14:26:27;14.03;;;10.37;;
16510;SDS011;8368;48.772;8.754;2023-01-01T14:28:55;16.37;;;10.33;;
16510;SDS011;8368;48.772;8.754;2023-01-01T14:31:24;13.17;;;9.80;;
16510;SDS011;8368;48.772;8.754;2023-01-01T14:33:55;7.03;;;6.37;;
16510;SDS011;8368;48.772;8.754;2023-01-01T14:36:23;11.57;;;8.20;;
16510;SDS011;8368;48.772;8.754;2023-01-01T14:38:53;18.07;;;12.50;;
16510;SDS011;8368;48.772;8.754;2023-01-01T14:41:29;22.53;;;13.57;;
16510;SDS011;8368;48.772;8.754;2023-01-01T14:44:08;13.63;;;9.97;;
16510;SDS011;8368;48.772;8.754;2023-01-01T14:46:40;16.17;;;10.87;;
16510;SDS011;8368;48.772;8.754;2023-01-01T14:49:09;8.70;;;7.23;;
16510;SDS011;8368;48.772;8.754;2023-01-01T14:51:46;9.87;;;6.87;;
16510;SDS011;8368;48.772;8.754;2023-01-01T14:54:19;8.10;;;5.50;;
16510;SDS011;8368;48.772;8.754;2023-01-01T14:56:47;5.73;;;4.20;;
16510;SDS011;8368;48.772;8.754;2023-01-01T14:59:32;5.33;;;4.80;;
16510;SDS011;8368;48.772;8.754;2023-01-01T15:01:59;5.60;;;4.47;;
16510;SDS011;8368;48.772;8.754;2023-01-01T15:04:25;6.20;;;4.50;;
16510;SDS011;8368;48.772;8.754;2023-01-01T15:06:54;7.87;;;4.83;;
16510;SDS011;8368;48.772;8.754;2023-01-01T15:09:21;5.83;;;4.50;;
16510;SDS011;8368;48.772;8.754;2023-01-01T15:11:52;8.87;;;4.50;;
16510;SDS011;8368;48.772;8.754;2023-01-01T15:17:02;8.07;;;4.70;;
16510;SDS011;8368;48.772;8.754;2023-01-01T15:19:29;4.53;;;4.13;;
16510;SDS011;8368;48.772;8.754;2023-01-01T15:21:55;4.63;;;4.23;;
16510;SDS011;8368;48.772;8.754;2023-01-01T15:24:21;4.27;;;3.93;;
16510;SDS011;8368;48.772;8.754;2023-01-01T15:26:57;6.80;;;3.90;;
16510;SDS011;8368;48.772;8.754;2023-01-01T15:32:00;4.63;;;3.27;;
16510;SDS011;8368;48.772;8.754;2023-01-01T15:34:29;6.53;;;3.67;;
16510;SDS011;8368;48.772;8.754;2023-01-01T15:37:03;4.07;;;3.67;;
16510;SDS011;8368;48.772;8.754;2023-01-01T15:39:47;6.73;;;4.10;;
16510;SDS011;8368;48.772;8.754;2023-01-01T15:42:27;7.77;;;4.03;;
16510;SDS011;8368;48.772;8.754;2023-01-01T15:47:47;4.60;;;3.70;;
16510;SDS011;8368;48.772;8.754;2023-01-01T15:50:24;5.17;;;3.57;;
16510;SDS011;8368;48.772;8.754;2023-01-01T15:52:56;6.40;;;4.10;;
16510;SDS011;8368;48.772;8.754;2023-01-01T15:55:25;6.60;;;4.83;;
16510;SDS011;8368;48.772;8.754;2023-01-01T15:57:53;4.40;;;4.00;;
16510;SDS011;8368;48.772;8.754;2023-01-01T16:00:23;4.97;;;4.10;;
16510;SDS011;8368;48.772;8.754;2023-01-01T16:02:50;6.20;;;3.90;;
16510;SDS011;8368;48.772;8.754;2023-01-01T16:05:19;6.53;;;4.00;;
16510;SDS011;8368;48.772;8.754;2023-01-01T16:07:55;6.47;;;3.90;;
16510;SDS011;8368;48.772;8.754;2023-01-01T16:10:28;6.13;;;4.07;;
16510;SDS011;8368;48.772;8.754;2023-01-01T16:12:55;6.83;;;4.40;;
16510;SDS011;8368;48.772;8.754;2023-01-01T16:15:21;6.03;;;3.73;;
16510;SDS011;8368;48.772;8.754;2023-01-01T16:17:47;5.90;;;3.47;;
16510;SDS011;8368;48.772;8.754;2023-01-01T16:20:13;5.27;;;3.07;;
16510;SDS011;8368;48.772;8.754;2023-01-01T16:22:40;4.47;;;3.80;;
16510;SDS011;8368;48.772;8.754;2023-01-01T16:27:45;4.43;;;3.47;;
16510;SDS011;8368;48.772;8.754;2023-01-01T16:30:11;7.03;;;3.30;;
16510;SDS011;8368;48.772;8.754;2023-01-01T16:32:38;5.70;;;3.70;;
16510;SDS011;8368;48.772;8.754;2023-01-01T16:35:04;5.27;;;3.37;;
16510;SDS011;8368;48.772;8.754;2023-01-01T16:37:31;6.43;;;4.33;;
16510;SDS011;8368;48.772;8.754;2023-01-01T16:39:57;7.23;;;4.40;;
16510;SDS011;8368;48.772;8.754;2023-01-01T16:42:23;7.47;;;5.07;;
16510;SDS011;8368;48.772;8.754;2023-01-01T16:44:48;9.17;;;4.60;;
16510;SDS011;8368;48.772;8.754;2023-01-01T16:47:15;7.57;;;5.37;;
16510;SDS011;8368;48.772;8.754;2023-01-01T16:49:40;7.57;;;5.83;;
16510;SDS011;8368;48.772;8.754;2023-01-01T16:52:06;9.37;;;5.77;;
16510;SDS011;8368;48.772;8.754;2023-01-01T16:54:31;8.73;;;5.23;;
16510;SDS011;8368;48.772;8.754;2023-01-01T16:56:58;7.47;;;4.93;;
16510;SDS011;8368;48.772;8.754;2023-01-01T16:59:24;7.20;;;5.03;;
16510;SDS011;8368;48.772;8.754;2023-01-01T17:01:49;5.83;;;4.73;;
16510;SDS011;8368;48.772;8.754;2023-01-01T17:04:15;6.93;;;4.70;;
16510;SDS011;8368;48.772;8.754;2023-01-01T17:06:40;7.60;;;4.90;;
16510;SDS011;8368;48.772;8.754;2023-01-01T17:09:06;5.33;;;3.87;;
16510;SDS011;8368;48.772;8.754;2023-01-01T17:11:34;6.43;;;3.90;;
16510;SDS011;8368;48.772;8.754;2023-01-01T17:14:00;7.33;;;4.30;;
16510;SDS011;8368;48.772;8.754;2023-01-01T17:16:30;5.67;;;3.63;;
16510;SDS011;8368;48.772;8.754;2023-01-01T17:18:57;4.97;;;3.50;;
16510;SDS011;8368;48.772;8.754;2023-01-01T17:21:23;3.93;;;3.53;;
16510;SDS011;8368;48.772;8.754;2023-01-01T17:23:49;7.53;;;3.10;;
16510;SDS011;8368;48.772;8.754;2023-01-01T17:26:16;3.03;;;2.73;;